Time;durP1;ratioP1;P1;durP2;ratioP2;P2;SDS_P1;SDS_P2;PMS_P1;PMS_P2;Temp;Humidity;BMP_temperature;BMP_pressure;BME280_temperature;BME280_humidity;BME280_pressure;Samples;Min_cycle;Max_cycle;Signal;HPM_P1;HPM_P2
2023/01/04 00:00:14;;;;;;;;;;;;;;;7.98;100.00;101672.31;5034733;28;19963;-77
2023/01/04 00:02:39;;;;;;;;;;;;;;;7.98;100.00;101665.34;5035099;28;19928;-77
2023/01/04 00:05:05;;;;;;;;;;;;;;;7.98;100.00;101667.97;5034786;28;19925;-77
2023/01/04 00:07:30;;;;;;;;;;;;;;;7.97;100.00;101658.44;5033943;28;20355;-77
2023/01/04 00:09:55;;;;;;;;;;;;;;;8.00;100.00;101649.69;5021165;28;19924;-77
2023/01/04 00:12:21;;;;;;;;;;;;;;;7.99;100.00;101648.84;5035633;28;19917;-77
2023/01/04 00:14:46;;;;;;;;;;;;;;;8.00;100.00;101632.28;5032223;28;19972;-77
2023/01/04 00:17:11;;;;;;;;;;;;;;;8.01;100.00;101640.97;5014306;28;19917;-77
2023/01/04 00:19:37;;;;;;;;;;;;;;;8.01;100.00;101647.06;5018859;28;20240;-77
2023/01/04 00:22:02;;;;;;;;;;;;;;;8.02;100.00;101647.91;5019966;28;19925;-77
2023/01/04 00:24:27;;;;;;;;;;;;;;;8.02;100.00;101621.81;5035250;28;19976;-77
2023/01/04 00:26:52;;;;;;;;;;;;;;;8.02;100.00;101635.75;5028540;28;19929;-77
2023/01/04 00:29:18;;;;;;;;;;;;;;;8.03;100.00;101627.00;5034684;28;19921;-77
2023/01/04 00:31:43;;;;;;;;;;;;;;;8.03;100.00;101624.41;5023640;28;19956;-78
2023/01/04 00:34:11;;;;;;;;;;;;;;;8.04;100.00;101614.81;5035274;28;19944;-77
2023/01/04 00:36:36;;;;;;;;;;;;;;;8.04;100.00;101623.53;5031877;28;19932;-77
2023/01/04 00:39:13;;;;;;;;;;;;;;;8.05;100.00;101619.16;5035264;28;19921;-77
2023/01/04 00:41:41;;;;;;;;;;;;;;;8.04;100.00;101614.81;5033414;28;20117;-77
2023/01/04 00:44:07;;;;;;;;;;;;;;;8.06;100.00;101605.25;5038187;28;19929;-77
2023/01/04 00:46:32;;;;;;;;;;;;;;;8.06;100.00;101598.28;5030470;28;19929;-77
2023/01/04 00:48:58;;;;;;;;;;;;;;;8.06;100.00;101595.66;5024635;28;19976;-77
2023/01/04 00:51:24;;;;;;;;;;;;;;;8.08;100.00;101593.03;5029663;28;20224;-77
2023/01/04 00:53:50;;;;;;;;;;;;;;;8.08;100.00;101595.63;5037065;28;19935;-77
2023/01/04 00:56:15;;;;;;;;;;;;;;;8.08;100.00;101587.81;5036043;28;20241;-77
2023/01/04 00:58:40;;;;;;;;;;;;;;;8.09;100.00;101597.34;5026845;28;19921;-78
2023/01/04 01:01:07;;;;;;;;;;;;;;;8.09;100.00;101586.91;5038350;28;19964;-77
2023/01/04 01:03:32;;;;;;;;;;;;;;;8.11;100.00;101586.88;5033453;28;20067;-77
2023/01/04 01:06:01;;;;;;;;;;;;;;;8.12;100.00;101575.56;5037386;28;19925;-77
2023/01/04 01:08:26;;;;;;;;;;;;;;;8.12;100.00;101584.25;5034173;28;19920;-77
2023/01/04 01:10:52;;;;;;;;;;;;;;;8.13;100.00;101565.13;5032072;28;19925;-78
2023/01/04 01:13:18;;;;;;;;;;;;;;;8.14;100.00;101569.44;5035343;28;19963;-77
2023/01/04 01:15:43;;;;;;;;;;;;;;;8.15;100.00;101565.94;5037479;28;20143;-77
2023/01/04 01:18:09;;;;;;;;;;;;;;;8.17;100.00;101568.53;5030519;28;19925;-77
2023/01/04 01:20:34;;;;;;;;;;;;;;;8.17;100.00;101568.53;5037571;28;19921;-77
2023/01/04 01:22:59;;;;;;;;;;;;;;;8.19;100.00;101578.03;5028455;28;19929;-77
2023/01/04 01:25:24;;;;;;;;;;;;;;;8.21;100.00;101570.19;5031736;28;20205;-77
2023/01/04 01:27:50;;;;;;;;;;;;;;;8.21;100.00;101576.25;5032719;28;20182;-77
2023/01/04 01:30:15;;;;;;;;;;;;;;;8.23;100.00;101576.22;5036821;28;19932;-77
2023/01/04 01:32:40;;;;;;;;;;;;;;;8.24;100.00;101573.59;5015869;28;19925;-77
2023/01/04 01:35:05;;;;;;;;;;;;;;;8.27;100.00;101578.72;5030891;28;19932;-77
2023/01/04 01:37:31;;;;;;;;;;;;;;;8.28;100.00;101577.00;5036259;28;19917;-77
2023/01/04 01:39:56;;;;;;;;;;;;;;;8.30;100.00;101574.38;5036755;28;19932;-77
2023/01/04 01:42:22;;;;;;;;;;;;;;;8.30;100.00;101549.13;5037496;28;19956;-77
2023/01/04 01:45:10;;;;;;;;;;;;;;;8.33;100.00;101567.34;5028713;28;19917;-77
2023/01/04 01:47:45;;;;;;;;;;;;;;;8.36;100.00;101561.19;5036820;28;19921;-77
2023/01/04 01:50:19;;;;;;;;;;;;;;;8.37;100.00;101570.75;5032857;28;20204;-77
2023/01/04 01:52:45;;;;;;;;;;;;;;;8.38;100.00;101562.88;5037270;28;19917;-77
2023/01/04 01:55:11;;;;;;;;;;;;;;;8.39;100.00;101546.31;5029607;28;20004;-77
2023/01/04 01:57:37;;;;;;;;;;;;;;;8.40;100.00;101544.56;5036430;28;19944;-77
2023/01/04 02:00:05;;;;;;;;;;;;;;;8.42;100.00;101553.25;5021433;28;19955;-77
2023/01/04 02:02:30;;;;;;;;;;;;;;;8.45;100.00;101555.81;5037169;28;20254;-77
2023/01/04 02:04:57;;;;;;;;;;;;;;;8.47;100.00;101555.78;5031220;28;19943;-77
2023/01/04 02:07:25;;;;;;;;;;;;;;;8.48;100.00;101544.44;5035447;28;19927;-77
2023/01/04 02:09:50;;;;;;;;;;;;;;;8.48;100.00;101547.94;5030040;28;20467;-77
2023/01/04 02:12:16;;;;;;;;;;;;;;;8.51;100.00;101552.22;5035640;28;19913;-77
2023/01/04 02:14:43;;;;;;;;;;;;;;;8.52;100.00;101557.41;5031333;28;19959;-77
2023/01/04 02:17:08;;;;;;;;;;;;;;;8.54;100.00;101555.63;5034900;28;20160;-77
2023/01/04 02:19:52;;;;;;;;;;;;;;;8.55;100.00;101567.78;5026043;28;19924;-77
2023/01/04 02:22:36;;;;;;;;;;;;;;;8.55;100.00;101552.13;5027212;28;19924;-77
2023/01/04 02:25:20;;;;;;;;;;;;;;;8.57;100.00;101557.31;5029333;28;19944;-77
2023/01/04 02:27:57;;;;;;;;;;;;;;;8.58;100.00;101554.66;5032199;28;19940;-77
2023/01/04 02:30:22;;;;;;;;;;;;;;;8.60;100.00;101558.13;5027403;28;20229;-77
2023/01/04 02:33:06;;;;;;;;;;;;;;;8.62;100.00;101563.28;5036767;28;19930;-77
2023/01/04 02:35:40;;;;;;;;;;;;;;;8.63;100.00;101559.78;5026191;28;20171;-77
2023/01/04 02:38:08;;;;;;;;;;;;;;;8.64;100.00;101544.09;5020917;28;19922;-77
2023/01/04 02:40:36;;;;;;;;;;;;;;;8.65;100.00;101558.84;5016809;28;19941;-77
2023/01/04 02:46:13;;;;;;;;;;;;;;;8.69;100.00;101543.13;5036172;28;20258;-78
2023/01/04 02:51:30;;;;;;;;;;;;;;;8.74;100.00;101516.03;5029983;28;20238;-78
2023/01/04 02:53:57;;;;;;;;;;;;;;;8.75;100.00;101525.59;5036311;28;19924;-78
2023/01/04 02:56:34;;;;;;;;;;;;;;;8.77;100.00;101529.03;5034449;28;20247;-77
2023/01/04 02:59:11;;;;;;;;;;;;;;;8.78;100.00;101535.09;5036719;28;19949;-77
2023/01/04 03:07:32;;;;;;;;;;;;;;;8.81;100.00;101507.16;5019858;28;20015;-77
2023/01/04 03:10:07;;;;;;;;;;;;;;;8.82;100.00;101510.63;5023225;28;19921;-77
2023/01/04 03:12:34;;;;;;;;;;;;;;;8.83;100.00;101501.91;5033866;28;19924;-77
2023/01/04 03:15:00;;;;;;;;;;;;;;;8.85;100.00;101513.16;5029200;28;19964;-77
2023/01/04 03:17:26;;;;;;;;;;;;;;;8.86;100.00;101485.28;5030540;28;19921;-78
2023/01/04 03:19:53;;;;;;;;;;;;;;;8.86;100.00;101488.78;5035729;28;19921;-78
2023/01/04 03:36:23;;;;;;;;;;;;;;;8.94;100.00;101484.22;5034928;28;19967;-78
2023/01/04 03:50:34;;;;;;;;;;;;;;;8.99;100.00;101474.53;5019740;28;19924;-78
2023/01/04 03:53:00;;;;;;;;;;;;;;;8.99;100.00;101471.91;5026386;28;19913;-78
2023/01/04 03:55:28;;;;;;;;;;;;;;;9.00;100.00;101464.94;5034451;28;19920;-78
2023/01/04 03:57:53;;;;;;;;;;;;;;;9.02;100.00;101471.84;5035478;28;20366;-78
2023/01/04 04:00:19;;;;;;;;;;;;;;;9.03;100.00;101470.94;5035757;28;19952;-78
2023/01/04 04:02:49;;;;;;;;;;;;;;;9.05;100.00;101457.00;5027801;28;19996;-78
2023/01/04 04:10:43;;;;;;;;;;;;;;;9.07;100.00;101437.75;5036091;28;19943;-78
2023/01/04 04:13:08;;;;;;;;;;;;;;;9.09;100.00;101441.19;5035241;28;20140;-78
2023/01/04 04:15:35;;;;;;;;;;;;;;;9.11;100.00;101446.38;5035217;28;20098;-78
2023/01/04 04:18:00;;;;;;;;;;;;;;;9.13;100.00;101439.34;5033783;28;19936;-78
2023/01/04 04:20:26;;;;;;;;;;;;;;;9.13;100.00;101437.63;5025084;28;19917;-78
2023/01/04 04:22:51;;;;;;;;;;;;;;;9.15;100.00;101437.56;5036845;28;19994;-78
2023/01/04 04:25:16;;;;;;;;;;;;;;;9.16;100.00;101432.31;5039244;28;19913;-78
2023/01/04 04:27:42;;;;;;;;;;;;;;;9.17;100.00;101427.97;5038944;28;20224;-78
2023/01/04 04:30:07;;;;;;;;;;;;;;;9.21;100.00;101432.19;5037512;28;19984;-78
2023/01/04 04:32:32;;;;;;;;;;;;;;;9.23;100.00;101438.25;5039292;28;19928;-78
2023/01/04 04:34:58;;;;;;;;;;;;;;;9.23;100.00;101428.63;5024419;28;20129;-78
2023/01/04 04:37:25;;;;;;;;;;;;;;;9.26;100.00;101427.72;5019300;28;20365;-78
2023/01/04 04:39:51;;;;;;;;;;;;;;;9.27;100.00;101436.41;5034860;28;19929;-78
2023/01/04 04:42:16;;;;;;;;;;;;;;;9.28;100.00;101431.16;5038972;28;19959;-78
2023/01/04 04:44:41;;;;;;;;;;;;;;;9.29;100.00;101432.84;5026647;28;20000;-78
2023/01/04 04:47:06;;;;;;;;;;;;;;;9.28;100.00;101420.69;5033040;28;19921;-78
2023/01/04 04:49:32;;;;;;;;;;;;;;;9.31;100.00;101427.59;5026989;28;19925;-78
2023/01/04 04:51:58;;;;;;;;;;;;;;;9.33;100.00;101425.78;5019465;28;20228;-78
2023/01/04 04:54:23;;;;;;;;;;;;;;;9.33;100.00;101421.44;5029340;28;20185;-78
2023/01/04 04:56:48;;;;;;;;;;;;;;;9.35;100.00;101429.22;5034991;28;20001;-78
2023/01/04 04:59:14;;;;;;;;;;;;;;;9.37;100.00;101417.84;5022841;28;20327;-78
2023/01/04 05:01:39;;;;;;;;;;;;;;;9.39;100.00;101387.28;5038439;28;20276;-78
2023/01/04 05:04:05;;;;;;;;;;;;;;;9.38;100.00;101416.91;5038084;28;20208;-78
2023/01/04 05:06:31;;;;;;;;;;;;;;;9.37;100.00;101407.38;5037422;28;19925;-78
2023/01/04 05:08:56;;;;;;;;;;;;;;;9.38;100.00;101419.53;5031839;28;19921;-78
2023/01/04 05:12:58;;;;;;;;;;;;;;;9.39;100.00;101389.88;5037021;28;19967;-78
2023/01/04 05:14:07;;;;;;;;;;;;;;;9.40;100.00;101381.16;5038230;28;20065;-78
2023/01/04 05:16:32;;;;;;;;;;;;;;;9.42;100.00;101388.94;5029851;28;19929;-78
2023/01/04 05:18:57;;;;;;;;;;;;;;;9.43;100.00;101376.75;5038537;28;19952;-78
2023/01/04 05:21:22;;;;;;;;;;;;;;;9.43;100.00;101374.13;5037410;28;20180;-78
2023/01/04 05:23:48;;;;;;;;;;;;;;;9.44;100.00;101381.06;5038367;28;19980;-78
2023/01/04 05:26:13;;;;;;;;;;;;;;;9.45;100.00;101377.56;5024345;28;19937;-78
2023/01/04 05:28:38;;;;;;;;;;;;;;;9.45;100.00;101377.56;5021178;28;20132;-78
2023/01/04 05:31:04;;;;;;;;;;;;;;;9.46;100.00;101380.13;5037635;28;20164;-78
2023/01/04 05:33:30;;;;;;;;;;;;;;;9.47;100.00;101357.44;5036236;28;19913;-78
2023/01/04 05:35:57;;;;;;;;;;;;;;;9.48;100.00;101362.66;5026373;28;19939;-78
2023/01/04 05:38:23;;;;;;;;;;;;;;;9.50;100.00;101341.69;5037710;28;19925;-78
2023/01/04 05:40:48;;;;;;;;;;;;;;;9.50;100.00;101339.91;5024751;28;19959;-78
2023/01/04 05:43:14;;;;;;;;;;;;;;;9.50;100.00;101353.00;5038024;28;19921;-78
2023/01/04 05:45:39;;;;;;;;;;;;;;;9.51;100.00;101346.00;5033366;28;20148;-78
2023/01/04 05:48:05;;;;;;;;;;;;;;;9.52;100.00;101326.81;5018372;28;19940;-78
2023/01/04 05:50:30;;;;;;;;;;;;;;;9.52;100.00;101345.97;5033437;28;20220;-78
2023/01/04 05:52:55;;;;;;;;;;;;;;;9.54;100.00;101340.69;5017614;28;19996;-78
2023/01/04 05:55:21;;;;;;;;;;;;;;;9.55;100.00;101345.00;5018066;28;19921;-77
2023/01/04 05:57:46;;;;;;;;;;;;;;;9.55;100.00;101382.50;5034490;28;19920;-77
2023/01/04 06:00:12;;;;;;;;;;;;;;;9.56;100.00;101357.19;5037873;28;19975;-77
2023/01/04 06:02:38;;;;;;;;;;;;;;;9.56;100.00;101365.88;5019909;28;19925;-77
2023/01/04 06:05:04;;;;;;;;;;;;;;;9.58;100.00;101369.31;5034290;28;19929;-77
2023/01/04 06:07:29;;;;;;;;;;;;;;;9.60;100.00;101379.72;5023827;28;20232;-78
2023/01/04 06:09:54;;;;;;;;;;;;;;;9.60;100.00;101374.50;5017529;28;20006;-77
2023/01/04 06:12:20;;;;;;;;;;;;;;;9.62;100.00;101367.47;5026916;28;19932;-77
2023/01/04 06:14:45;;;;;;;;;;;;;;;9.63;100.00;101363.13;5036847;28;19917;-77
2023/01/04 06:17:10;;;;;;;;;;;;;;;9.64;100.00;101365.69;5037046;28;20148;-77
2023/01/04 06:19:36;;;;;;;;;;;;;;;9.64;100.00;101363.09;5036601;28;19925;-77
2023/01/04 06:22:01;;;;;;;;;;;;;;;9.66;100.00;101363.88;5035744;28;19987;-77
2023/01/04 06:24:26;;;;;;;;;;;;;;;9.69;100.00;101366.41;5037219;28;19952;-77
2023/01/04 06:26:52;;;;;;;;;;;;;;;9.70;100.00;101360.28;5034195;28;19991;-77
2023/01/04 06:29:17;;;;;;;;;;;;;;;9.70;100.00;101354.19;5022604;28;19924;-77
2023/01/04 06:31:43;;;;;;;;;;;;;;;9.71;100.00;101351.50;5032882;28;19940;-77
2023/01/04 06:34:12;;;;;;;;;;;;;;;9.73;100.00;101354.97;5035657;28;20301;-77
2023/01/04 06:36:37;;;;;;;;;;;;;;;9.74;100.00;101356.66;5036428;28;19925;-77
2023/01/04 06:39:02;;;;;;;;;;;;;;;9.75;100.00;101355.78;5019455;28;20194;-77
2023/01/04 06:41:28;;;;;;;;;;;;;;;9.76;100.00;101348.78;5015099;28;20141;-77
2023/01/04 06:43:53;;;;;;;;;;;;;;;9.77;100.00;101353.97;5031079;28;19917;-77
2023/01/04 06:46:18;;;;;;;;;;;;;;;9.79;100.00;101348.69;5036196;28;19952;-77
2023/01/04 06:48:43;;;;;;;;;;;;;;;9.80;100.00;101339.94;5024507;28;19996;-77
2023/01/04 06:51:09;;;;;;;;;;;;;;;9.80;100.00;101335.56;5015936;28;19913;-77
2023/01/04 06:53:34;;;;;;;;;;;;;;;9.80;100.00;101314.66;5025596;28;19917;-80
2023/01/04 06:55:59;;;;;;;;;;;;;;;9.83;100.00;101336.38;5035551;28;19944;-77
2023/01/04 06:58:25;;;;;;;;;;;;;;;9.83;100.00;101332.00;5026640;28;19975;-77
2023/01/04 07:00:50;;;;;;;;;;;;;;;9.83;100.00;101339.00;5028620;28;20260;-80
2023/01/04 07:03:16;;;;;;;;;;;;;;;9.83;100.00;101320.69;5020389;28;19920;-77
2023/01/04 07:05:41;;;;;;;;;;;;;;;9.84;100.00;101325.00;5036244;28;19925;-80
2023/01/04 07:08:07;;;;;;;;;;;;;;;9.84;100.00;101323.25;5034802;28;19929;-80
2023/01/04 07:10:32;;;;;;;;;;;;;;;9.85;100.00;101324.13;5016442;28;19917;-80
2023/01/04 07:12:57;;;;;;;;;;;;;;;9.86;100.00;101333.66;5016838;28;19914;-80
2023/01/04 07:15:22;;;;;;;;;;;;;;;9.87;100.00;101332.75;5031141;28;20335;-77
2023/01/04 07:17:48;;;;;;;;;;;;;;;9.88;100.00;101329.25;5016305;28;19954;-77
2023/01/04 07:20:13;;;;;;;;;;;;;;;9.89;100.00;101307.41;5031304;28;20280;-77
2023/01/04 07:22:39;;;;;;;;;;;;;;;9.90;100.00;101324.84;5035545;28;19951;-78
2023/01/04 07:25:04;;;;;;;;;;;;;;;9.90;100.00;101309.13;5022880;28;20225;-78
2023/01/04 07:27:29;;;;;;;;;;;;;;;9.91;100.00;101306.44;5016415;28;20268;-78
2023/01/04 07:29:55;;;;;;;;;;;;;;;9.92;100.00;101309.94;5025505;28;19925;-78
2023/01/04 07:32:20;;;;;;;;;;;;;;;9.91;100.00;101311.69;5036160;28;19928;-78
2023/01/04 07:34:45;;;;;;;;;;;;;;;9.93;100.00;101304.66;5027562;28;19933;-80
2023/01/04 07:37:12;;;;;;;;;;;;;;;9.94;100.00;101313.38;5020214;28;19988;-78
2023/01/04 07:39:37;;;;;;;;;;;;;;;9.94;100.00;101300.28;5021987;28;19956;-78
2023/01/04 07:42:02;;;;;;;;;;;;;;;9.94;100.00;101295.91;5025350;28;20133;-78
2023/01/04 07:44:28;;;;;;;;;;;;;;;9.94;100.00;101308.13;5019750;28;19932;-78
2023/01/04 07:46:53;;;;;;;;;;;;;;;9.94;100.00;101314.22;5035764;28;19925;-77
2023/01/04 07:49:19;;;;;;;;;;;;;;;9.95;100.00;101315.94;5026692;28;19918;-78
2023/01/04 07:51:47;;;;;;;;;;;;;;;9.94;100.00;101313.38;5035703;28;19909;-78
2023/01/04 07:54:13;;;;;;;;;;;;;;;9.93;100.00;101320.38;5040736;28;19912;-78
2023/01/04 07:56:39;;;;;;;;;;;;;;;9.95;100.00;101315.06;5029178;28;19929;-78
2023/01/04 07:59:05;;;;;;;;;;;;;;;9.97;100.00;101310.66;5022533;28;19932;-78
2023/01/04 08:01:30;;;;;;;;;;;;;;;9.97;100.00;101323.75;5023105;28;20311;-78
2023/01/04 08:03:56;;;;;;;;;;;;;;;9.98;100.00;101307.13;5026833;28;19913;-78
2023/01/04 08:06:21;;;;;;;;;;;;;;;9.99;100.00;101320.16;5026266;28;19918;-78
2023/01/04 08:08:47;;;;;;;;;;;;;;;10.02;100.00;101308.75;5033633;28;19920;-78
2023/01/04 08:11:13;;;;;;;;;;;;;;;10.05;100.00;101315.66;5029228;28;20220;-78
2023/01/04 08:13:39;;;;;;;;;;;;;;;10.07;100.00;101303.38;5038879;28;19913;-78
2023/01/04 08:16:04;;;;;;;;;;;;;;;10.08;100.00;101294.63;5037587;28;20182;-78
2023/01/04 08:18:29;;;;;;;;;;;;;;;10.12;100.00;101311.94;5039159;28;19921;-78
2023/01/04 08:21:02;;;;;;;;;;;;;;;10.12;100.00;101315.41;5029267;28;19960;-78
2023/01/04 08:23:27;;;;;;;;;;;;;;;10.14;100.00;101313.59;5030582;28;19921;-77
2023/01/04 08:25:53;;;;;;;;;;;;;;;10.17;100.00;101318.75;5021402;28;19961;-78
2023/01/04 08:28:18;;;;;;;;;;;;;;;10.19;100.00;101313.47;5035442;28;20248;-78
2023/01/04 08:30:43;;;;;;;;;;;;;;;10.23;100.00;101312.47;5031452;28;19921;-78
2023/01/04 08:33:15;;;;;;;;;;;;;;;10.27;100.00;101318.47;5028874;28;19925;-78
2023/01/04 08:35:40;;;;;;;;;;;;;;;10.28;100.00;101307.94;5032068;28;19929;-78
2023/01/04 08:38:05;;;;;;;;;;;;;;;10.33;100.00;101332.25;5023468;28;20219;-78
2023/01/04 08:40:31;;;;;;;;;;;;;;;10.35;100.00;101337.41;5051207;28;19913;-78
2023/01/04 08:42:56;;;;;;;;;;;;;;;10.35;100.00;101338.28;5026264;28;19929;-78
2023/01/04 08:45:24;;;;;;;;;;;;;;;10.36;100.00;101342.59;5036919;28;19971;-78
2023/01/04 08:47:49;;;;;;;;;;;;;;;10.41;100.00;101325.91;5039056;28;20149;-78
2023/01/04 08:50:15;;;;;;;;;;;;;;;10.42;100.00;101356.41;5019919;28;19951;-78
2023/01/04 08:52:41;;;;;;;;;;;;;;;10.43;100.00;101361.59;5020556;28;20133;-78
2023/01/04 08:55:06;;;;;;;;;;;;;;;10.44;100.00;101360.72;5022241;28;19913;-78
2023/01/04 08:57:32;;;;;;;;;;;;;;;10.45;100.00;101351.09;5029070;28;19928;-78
2023/01/04 08:59:58;;;;;;;;;;;;;;;10.47;100.00;101375.47;5029044;28;20228;-78
2023/01/04 09:02:24;;;;;;;;;;;;;;;10.49;100.00;101371.03;5043605;28;19932;-78
2023/01/04 09:04:50;;;;;;;;;;;;;;;10.50;100.00;101373.59;5021750;28;19929;-77
2023/01/04 09:07:16;;;;;;;;;;;;;;;10.51;100.00;101370.09;5033434;28;19983;-78
2023/01/04 09:09:41;;;;;;;;;;;;;;;10.52;100.00;101365.69;5030929;28;19964;-78
2023/01/04 09:12:06;;;;;;;;;;;;;;;10.53;100.00;101367.41;5025524;28;20236;-80
2023/01/04 09:14:32;;;;;;;;;;;;;;;10.54;100.00;101376.97;5032027;28;19913;-79
2023/01/04 09:16:57;;;;;;;;;;;;;;;10.54;100.00;101343.78;5050817;28;19952;-78
2023/01/04 09:19:22;;;;;;;;;;;;;;;10.54;100.00;101351.63;5031654;28;20109;-78
2023/01/04 09:21:48;;;;;;;;;;;;;;;10.55;100.00;101361.22;5018548;28;19917;-78
2023/01/04 09:24:13;;;;;;;;;;;;;;;10.55;100.00;101387.41;5031338;28;19937;-79
2023/01/04 09:26:38;;;;;;;;;;;;;;;10.55;100.00;101361.22;5031511;28;19922;-78
2023/01/04 09:29:05;;;;;;;;;;;;;;;10.56;100.00;101381.25;5023379;28;20201;-81
2023/01/04 09:31:31;;;;;;;;;;;;;;;10.59;100.00;101375.06;5037031;28;19913;-79
2023/01/04 09:33:57;;;;;;;;;;;;;;;10.60;100.00;101387.25;5022681;28;20022;-78
2023/01/04 09:36:23;;;;;;;;;;;;;;;10.61;100.00;101381.13;5023753;28;19925;-80
2023/01/04 09:38:50;;;;;;;;;;;;;;;10.62;100.00;101363.63;5022837;28;19917;-78
2023/01/04 09:41:16;;;;;;;;;;;;;;;10.64;100.00;101394.13;5031254;28;19928;-78
2023/01/04 09:43:45;;;;;;;;;;;;;;;10.66;100.00;101388.81;5034930;28;19913;-78
2023/01/04 09:46:14;;;;;;;;;;;;;;;10.69;100.00;101399.19;5037268;28;19923;-79
2023/01/04 09:48:41;;;;;;;;;;;;;;;10.70;100.00;101383.44;5025913;28;20255;-79
2023/01/04 09:51:11;;;;;;;;;;;;;;;10.70;100.00;101396.53;5026980;28;19948;-78
2023/01/04 09:53:45;;;;;;;;;;;;;;;10.72;100.00;101394.72;5035398;28;20124;-79
2023/01/04 09:56:19;;;;;;;;;;;;;;;10.74;100.00;101413.00;5025184;28;19952;-80
2023/01/04 09:58:45;;;;;;;;;;;;;;;10.74;100.00;101403.38;5028888;28;20167;-79
2023/01/04 10:01:15;;;;;;;;;;;;;;;10.75;100.00;101393.75;5026911;28;19953;-78
2023/01/04 10:03:52;;;;;;;;;;;;;;;10.79;100.00;101399.75;5025241;28;20131;-79
2023/01/04 10:06:17;;;;;;;;;;;;;;;10.83;100.00;101396.16;5025973;28;19913;-79
2023/01/04 10:08:43;;;;;;;;;;;;;;;10.83;100.00;101385.66;5026298;28;19925;-79
2023/01/04 10:11:11;;;;;;;;;;;;;;;10.83;100.00;101394.38;5026300;28;20316;-79
2023/01/04 10:13:42;;;;;;;;;;;;;;;10.84;100.00;101393.47;5026952;28;20120;-78
2023/01/04 10:16:26;;;;;;;;;;;;;;;10.85;100.00;101389.94;5023879;28;19929;-79
2023/01/04 10:18:59;;;;;;;;;;;;;;;10.87;100.00;101377.63;5033632;28;20006;-79
2023/01/04 10:21:32;;;;;;;;;;;;;;;10.88;100.00;101371.50;5036670;28;19948;-79
2023/01/04 10:24:00;;;;;;;;;;;;;;;10.89;100.00;101369.72;5024888;28;19980;-79
2023/01/04 10:26:29;;;;;;;;;;;;;;;10.90;100.00;101372.28;5015810;28;20144;-79
2023/01/04 10:29:02;;;;;;;;;;;;;;;10.91;100.00;101392.38;5024016;28;20514;-79
2023/01/04 10:31:28;;;;;;;;;;;;;;;10.92;100.00;101380.97;5028273;28;19928;-78
2023/01/04 10:33:59;;;;;;;;;;;;;;;10.92;100.00;101386.19;5027102;28;19921;-78
2023/01/04 10:36:30;;;;;;;;;;;;;;;10.92;100.00;101378.34;5024257;28;19928;-78
2023/01/04 10:39:11;;;;;;;;;;;;;;;10.94;100.00;101375.66;5026313;28;20190;-79
2023/01/04 10:41:40;;;;;;;;;;;;;;;10.94;100.00;101384.38;5024716;28;19921;-78
2023/01/04 10:44:14;;;;;;;;;;;;;;;10.96;100.00;101394.81;5025093;28;20040;-79
2023/01/04 10:47:00;;;;;;;;;;;;;;;10.97;100.00;101396.53;5011099;28;19925;-79
2023/01/04 10:49:32;;;;;;;;;;;;;;;11.00;100.00;101387.72;5022719;28;19917;-79
2023/01/04 10:52:20;;;;;;;;;;;;;;;11.04;100.00;101384.06;5029133;28;19925;-79
2023/01/04 10:54:56;;;;;;;;;;;;;;;11.05;100.00;101378.78;5025375;28;20257;-78
2023/01/04 10:57:21;;;;;;;;;;;;;;;11.05;100.00;101378.78;5029475;28;20124;-79
2023/01/04 10:59:55;;;;;;;;;;;;;;;11.06;100.00;101377.00;5021379;28;19932;-82
2023/01/04 11:02:26;;;;;;;;;;;;;;;11.06;100.00;101371.75;5023273;28;19929;-79
2023/01/04 11:04:55;;;;;;;;;;;;;;;11.07;100.00;101397.94;5025707;28;20327;-79
2023/01/04 11:07:49;;;;;;;;;;;;;;;11.09;100.00;101380.38;5027247;28;20155;-79
2023/01/04 11:10:29;;;;;;;;;;;;;;;11.11;100.00;101367.22;5017501;28;19913;-79
2023/01/04 11:12:54;;;;;;;;;;;;;;;11.11;100.00;101364.59;5026091;28;19913;-79
2023/01/04 11:15:19;;;;;;;;;;;;;;;11.12;100.00;101361.09;5029041;28;19970;-79
2023/01/04 11:17:46;;;;;;;;;;;;;;;11.12;100.00;101367.19;5029584;28;20357;-79
2023/01/04 11:20:11;;;;;;;;;;;;;;;11.12;100.00;101367.19;5028268;28;19921;-79
2023/01/04 11:22:51;;;;;;;;;;;;;;;11.12;100.00;101333.09;5032474;28;19941;-79
2023/01/04 11:25:17;;;;;;;;;;;;;;;11.11;100.00;101344.50;5031998;28;20189;-78
2023/01/04 11:27:45;;;;;;;;;;;;;;;11.11;100.00;101349.75;5024850;28;19933;-79
2023/01/04 11:30:11;;;;;;;;;;;;;;;11.10;100.00;101337.53;5030778;28;20155;-78
2023/01/04 11:32:56;;;;;;;;;;;;;;;11.10;100.00;101345.41;5034163;28;19917;-78
2023/01/04 11:35:40;;;;;;;;;;;;;;;11.11;100.00;101325.28;5033588;28;19929;-79
2023/01/04 11:38:10;;;;;;;;;;;;;;;11.11;100.00;101330.53;5032096;28;20102;-79
2023/01/04 11:40:36;;;;;;;;;;;;;;;11.09;100.00;101351.53;5028679;28;19928;-78
2023/01/04 11:43:16;;;;;;;;;;;;;;;11.09;100.00;101341.06;5022068;28;19925;-78
2023/01/04 11:45:51;;;;;;;;;;;;;;;11.08;100.00;101356.88;5018261;28;19921;-78
2023/01/04 11:48:17;;;;;;;;;;;;;;;11.08;100.00;101343.75;5031810;28;19988;-78
2023/01/04 11:50:46;;;;;;;;;;;;;;;11.08;100.00;101355.09;5034163;28;19921;-78
2023/01/04 11:53:21;;;;;;;;;;;;;;;11.08;100.00;101343.75;5028180;28;20152;-79
2023/01/04 11:55:46;;;;;;;;;;;;;;;11.09;100.00;101345.47;5034360;28;20254;-79
2023/01/04 11:58:13;;;;;;;;;;;;;;;11.07;100.00;101352.53;5027726;28;19925;-78
2023/01/04 12:00:59;;;;;;;;;;;;;;;11.07;100.00;101331.56;5023589;28;20213;-78
2023/01/04 12:03:37;;;;;;;;;;;;;;;11.06;100.00;101333.31;5020994;28;19944;-78
2023/01/04 12:06:09;;;;;;;;;;;;;;;11.06;100.00;101327.19;5020680;28;19913;-78
2023/01/04 12:08:35;;;;;;;;;;;;;;;11.07;100.00;101347.28;5028197;28;19928;-78
2023/01/04 12:11:02;;;;;;;;;;;;;;;11.09;100.00;101345.47;5027785;28;20143;-79
2023/01/04 12:13:27;;;;;;;;;;;;;;;11.06;100.00;101332.44;5026000;28;20280;-78
2023/01/04 12:16:04;;;;;;;;;;;;;;;11.05;100.00;101355.19;5030753;28;20219;-78
2023/01/04 12:18:35;;;;;;;;;;;;;;;11.05;100.00;101343.84;5038212;28;19917;-78
2023/01/04 12:21:01;;;;;;;;;;;;;;;11.04;100.00;101326.41;5037650;28;20184;-78
2023/01/04 12:23:26;;;;;;;;;;;;;;;11.03;100.00;101341.28;5022350;28;19968;-79
2023/01/04 12:25:52;;;;;;;;;;;;;;;11.03;100.00;101338.66;5033098;28;20112;-79
2023/01/04 12:28:27;;;;;;;;;;;;;;;11.02;100.00;101346.56;5023752;28;19929;-78
2023/01/04 12:30:52;;;;;;;;;;;;;;;11.02;100.00;101363.16;5023055;28;20236;-78
2023/01/04 12:33:33;;;;;;;;;;;;;;;11.02;100.00;101338.72;5026425;28;19921;-79
2023/01/04 12:36:00;;;;;;;;;;;;;;;11.00;100.00;101341.38;5029278;28;19970;-78
2023/01/04 12:38:44;;;;;;;;;;;;;;;11.01;100.00;101347.50;5034767;28;19996;-78
2023/01/04 12:41:09;;;;;;;;;;;;;;;11.00;100.00;101346.63;5028863;28;19922;-78
2023/01/04 12:43:38;;;;;;;;;;;;;;;10.99;100.00;101339.69;5034126;28;20227;-78
2023/01/04 12:49:25;;;;;;;;;;;;;;;11.00;100.00;101364.97;5029292;28;19917;-78
2023/01/04 12:52:08;;;;;;;;;;;;;;;11.01;100.00;101347.50;5037025;28;19928;-78
2023/01/04 12:54:48;;;;;;;;;;;;;;;11.01;100.00;101355.38;5036291;28;19945;-78
2023/01/04 12:57:16;;;;;;;;;;;;;;;11.02;100.00;101357.91;5033243;28;20200;-79
2023/01/04 12:59:58;;;;;;;;;;;;;;;11.03;100.00;101345.69;5032060;28;19983;-78
2023/01/04 13:02:23;;;;;;;;;;;;;;;11.03;100.00;101346.53;5029685;28;19976;-78
2023/01/04 13:04:49;;;;;;;;;;;;;;;11.04;100.00;101350.88;5030675;28;19925;-79
2023/01/04 13:07:31;;;;;;;;;;;;;;;11.04;100.00;101342.13;5021853;28;19929;-79
2023/01/04 13:09:58;;;;;;;;;;;;;;;11.02;100.00;101333.47;5026254;28;20209;-78
2023/01/04 13:12:26;;;;;;;;;;;;;;;11.02;100.00;101317.75;5034259;28;20272;-79
2023/01/04 13:14:56;;;;;;;;;;;;;;;11.02;100.00;101323.00;5028877;28;19948;-79
2023/01/04 13:17:22;;;;;;;;;;;;;;;11.01;100.00;101326.53;5031289;28;20110;-79
2023/01/04 13:19:48;;;;;;;;;;;;;;;11.00;100.00;101346.63;5035818;28;20116;-79
2023/01/04 13:22:26;;;;;;;;;;;;;;;10.99;100.00;101331.81;5036752;28;20113;-78